createdAt,value
2023-01-09T00:00:22.912Z,9.900
2023-01-09T00:01:33.303Z,9.900
2023-01-09T00:02:25.235Z,9.800
2023-01-09T00:03:29.213Z,9.800
2023-01-09T00:04:23.305Z,9.800
2023-01-09T00:05:29.645Z,9.700
2023-01-09T00:06:27.679Z,9.700
2023-01-09T00:07:24.997Z,9.700
2023-01-09T00:08:39.255Z,9.700
2023-01-09T00:10:21.122Z,9.600
2023-01-09T00:11:22.327Z,9.600
2023-01-09T00:12:32.371Z,9.600
2023-01-09T00:13:28.831Z,9.500
2023-01-09T00:14:23.080Z,9.500
2023-01-09T00:15:34.289Z,9.500
2023-01-09T00:16:27.291Z,9.400
2023-01-09T00:17:26.145Z,9.400
2023-01-09T00:18:19.842Z,9.300
2023-01-09T00:19:20.428Z,9.300
2023-01-09T00:20:26.218Z,9.300
2023-01-09T00:21:22.830Z,9.200
2023-01-09T00:22:34.540Z,9.200
2023-01-09T00:23:28.401Z,9.200
2023-01-09T00:24:25.948Z,9.100
2023-01-09T00:25:20.240Z,9.100
2023-01-09T00:27:22.833Z,9.100
2023-01-09T00:28:22.379Z,9.000
2023-01-09T00:29:32.091Z,9.000
2023-01-09T00:30:28.532Z,9.000
2023-01-09T00:31:24.091Z,9.000
2023-01-09T00:32:20.371Z,9.000
2023-01-09T00:33:29.879Z,9.000
2023-01-09T00:34:26.036Z,8.900
2023-01-09T00:35:22.172Z,8.900
2023-01-09T00:36:33.358Z,8.900
2023-01-09T00:37:27.975Z,8.900
2023-01-09T00:38:24.017Z,8.900
2023-01-09T00:39:21.172Z,8.900
2023-01-09T00:40:21.998Z,8.900
2023-01-09T00:41:26.723Z,8.900
2023-01-09T00:42:22.058Z,9.000
2023-01-09T00:43:31.863Z,9.000
2023-01-09T00:44:24.949Z,8.900
2023-01-09T00:45:24.021Z,8.900
2023-01-09T00:46:22.630Z,9.000
2023-01-09T00:47:27.857Z,9.000
2023-01-09T00:48:25.907Z,9.000
2023-01-09T00:49:22.654Z,9.000
2023-01-09T00:50:30.737Z,9.000
2023-01-09T00:51:27.898Z,8.900
2023-01-09T00:52:25.785Z,8.900
2023-01-09T00:53:20.085Z,8.900
2023-01-09T00:54:30.568Z,8.800
2023-01-09T00:57:32.225Z,8.700
2023-01-09T00:58:29.470Z,8.700
2023-01-09T00:59:24.140Z,8.600
2023-01-09T01:00:20.567Z,8.600
2023-01-09T01:01:27.573Z,8.600
2023-01-09T01:02:27.679Z,8.600
2023-01-09T01:04:23.362Z,8.500
2023-01-09T01:05:28.977Z,8.500
2023-01-09T01:06:23.851Z,8.400
2023-01-09T01:07:20.056Z,8.400
2023-01-09T01:08:31.840Z,8.400
2023-01-09T01:09:26.660Z,8.300
2023-01-09T01:10:21.993Z,8.300
2023-01-09T01:11:27.101Z,8.300
2023-01-09T01:12:24.747Z,8.300
2023-01-09T01:13:24.419Z,8.300
2023-01-09T01:14:21.494Z,8.200
2023-01-09T01:15:30.190Z,8.200
2023-01-09T01:16:27.401Z,8.200
2023-01-09T01:17:21.814Z,8.200
2023-01-09T01:18:23.303Z,8.200
2023-01-09T01:19:24.126Z,8.200
2023-01-09T01:20:25.026Z,8.200
2023-01-09T01:21:19.869Z,8.200
2023-01-09T01:22:30.847Z,8.200
2023-01-09T01:23:21.624Z,8.200
2023-01-09T01:24:24.043Z,8.200
2023-01-09T01:25:26.212Z,8.200
2023-01-09T01:26:19.181Z,8.200
2023-01-09T01:27:22.059Z,8.200
2023-01-09T01:28:20.381Z,8.200
2023-01-09T01:29:25.768Z,8.200
2023-01-09T01:30:26.453Z,8.100
2023-01-09T01:31:23.632Z,8.100
2023-01-09T01:32:21.632Z,8.100
2023-01-09T01:33:23.899Z,8.100
2023-01-09T01:34:25.427Z,8.100
2023-01-09T01:35:20.298Z,8.100
2023-01-09T01:36:31.297Z,8.000
2023-01-09T01:37:26.068Z,8.000
2023-01-09T01:38:23.424Z,7.900
2023-01-09T01:39:24.658Z,7.900
2023-01-09T01:40:21.848Z,7.900
2023-01-09T01:41:20.978Z,7.900
2023-01-09T01:42:22.370Z,7.900
2023-01-09T01:43:21.696Z,7.800
2023-01-09T01:44:26.045Z,7.800
2023-01-09T01:45:22.346Z,7.800
2023-01-09T01:46:27.721Z,7.800
2023-01-09T01:48:25.250Z,7.900
2023-01-09T01:50:23.370Z,8.100
2023-01-09T01:51:25.952Z,8.150
2023-01-09T01:52:22.072Z,8.300
2023-01-09T01:53:33.133Z,8.300
2023-01-09T01:54:27.915Z,8.400
2023-01-09T01:55:24.049Z,8.500
2023-01-09T01:56:22.691Z,8.600
2023-01-09T01:58:26.151Z,8.600
2023-01-09T01:59:22.089Z,8.600
2023-01-09T02:00:36.508Z,8.600
2023-01-09T02:05:36.850Z,8.800
2023-01-09T02:06:26.583Z,8.800
2023-01-09T02:12:08.550Z,8.600
2023-01-09T02:12:27.097Z,8.600
2023-01-09T02:13:22.698Z,8.600
2023-01-09T02:14:28.152Z,8.500
2023-01-09T02:15:29.879Z,8.500
2023-01-09T02:16:25.664Z,8.500
2023-01-09T02:17:21.776Z,8.500
2023-01-09T02:18:30.390Z,8.500
2023-01-09T02:19:22.290Z,8.400
2023-01-09T02:20:23.098Z,8.500
2023-01-09T02:21:33.716Z,8.500
2023-01-09T02:22:29.983Z,8.500
2023-01-09T02:23:24.212Z,8.500
2023-01-09T02:24:21.736Z,8.500
2023-01-09T02:26:26.156Z,8.500
2023-01-09T02:28:34.316Z,8.500
2023-01-09T02:29:28.089Z,8.400
2023-01-09T02:30:19.492Z,8.300
2023-01-09T02:31:20.320Z,8.300
2023-01-09T02:32:30.121Z,8.300
2023-01-09T02:33:31.324Z,8.300
2023-01-09T02:36:19.977Z,8.300
2023-01-09T02:37:24.190Z,8.300
2023-01-09T02:38:20.389Z,8.200
2023-01-09T02:39:30.137Z,8.200
2023-01-09T02:40:27.954Z,8.200
2023-01-09T02:41:22.200Z,8.200
2023-01-09T02:42:21.988Z,8.200
2023-01-09T02:43:29.847Z,8.200
2023-01-09T02:44:25.676Z,8.200
2023-01-09T02:45:20.271Z,8.200
2023-01-09T02:46:31.722Z,8.200
2023-01-09T02:47:25.923Z,8.200
2023-01-09T02:48:23.530Z,8.200
2023-01-09T02:49:24.599Z,8.200
2023-01-09T02:50:23.244Z,8.300
2023-01-09T02:51:24.040Z,8.300
2023-01-09T02:52:20.188Z,8.250
2023-01-09T02:53:23.293Z,8.200
2023-01-09T02:55:23.711Z,8.200
2023-01-09T02:56:29.244Z,8.200
2023-01-09T02:57:21.677Z,8.200
2023-01-09T02:58:20.423Z,8.200
2023-01-09T02:59:20.433Z,8.100
2023-01-09T03:00:30.460Z,8.100
2023-01-09T03:01:28.011Z,8.100
2023-01-09T03:02:21.982Z,8.100
2023-01-09T03:03:32.794Z,8.100
2023-01-09T03:05:23.939Z,8.100
2023-01-09T03:06:21.951Z,8.000
2023-01-09T03:07:30.255Z,8.000
2023-01-09T03:09:23.501Z,8.000
2023-01-09T03:10:23.323Z,8.000
2023-01-09T03:11:31.150Z,8.000
2023-01-09T03:13:21.020Z,8.000
2023-01-09T03:14:30.269Z,8.000
2023-01-09T03:15:26.318Z,7.900
2023-01-09T03:16:24.111Z,7.900
2023-01-09T03:17:19.629Z,7.900
2023-01-09T03:19:24.537Z,7.900
2023-01-09T03:20:21.900Z,7.900
2023-01-09T03:22:27.827Z,7.800
2023-01-09T03:23:22.375Z,7.800
2023-01-09T03:24:22.996Z,7.800
2023-01-09T03:25:30.832Z,7.800
2023-01-09T03:27:21.433Z,7.700
2023-01-09T03:28:22.983Z,7.700
2023-01-09T03:29:27.851Z,7.600
2023-01-09T03:30:22.973Z,7.600
2023-01-09T03:31:25.927Z,7.500
2023-01-09T03:32:30.241Z,7.500
2023-01-09T03:33:24.281Z,7.400
2023-01-09T03:34:20.328Z,7.400
2023-01-09T03:35:22.306Z,7.400
2023-01-09T03:37:22.281Z,7.300
2023-01-09T03:38:23.435Z,7.200
2023-01-09T03:39:30.343Z,7.200
2023-01-09T03:40:24.215Z,7.100
2023-01-09T03:41:21.681Z,7.100
2023-01-09T03:42:26.424Z,7.100
2023-01-09T03:44:22.258Z,7.000
2023-01-09T03:45:32.468Z,7.000
2023-01-09T03:46:28.582Z,6.950
2023-01-09T03:47:24.489Z,6.900
2023-01-09T03:48:20.279Z,6.800
2023-01-09T03:49:26.796Z,6.800
2023-01-09T03:50:27.230Z,6.800
2023-01-09T03:51:22.950Z,6.800
2023-01-09T03:52:34.488Z,6.800
2023-01-09T03:53:23.020Z,6.750
2023-01-09T03:54:24.574Z,6.700
2023-01-09T03:55:21.896Z,6.700
2023-01-09T03:56:30.727Z,6.600
2023-01-09T03:57:31.155Z,6.600
2023-01-09T03:59:32.334Z,6.500
2023-01-09T04:00:25.726Z,6.400
2023-01-09T04:01:25.599Z,6.350
2023-01-09T04:02:20.137Z,6.300
2023-01-09T04:03:32.553Z,6.300
2023-01-09T04:04:19.694Z,6.300
2023-01-09T04:05:22.079Z,6.200
2023-01-09T04:06:23.212Z,6.200
2023-01-09T04:08:24.548Z,6.150
2023-01-09T04:09:21.933Z,6.100
2023-01-09T04:10:31.759Z,6.100
2023-01-09T04:11:22.753Z,6.100
2023-01-09T04:12:21.969Z,6.100
2023-01-09T04:13:25.058Z,6.100
2023-01-09T04:14:30.460Z,6.100
2023-01-09T04:15:25.491Z,6.100
2023-01-09T04:16:20.016Z,6.150
2023-01-09T04:17:30.446Z,6.200
2023-01-09T04:18:28.931Z,6.200
2023-01-09T04:19:22.450Z,6.200
2023-01-09T04:20:29.183Z,6.200
2023-01-09T04:21:22.792Z,6.200
2023-01-09T04:22:21.269Z,6.200
2023-01-09T04:23:25.628Z,6.300
2023-01-09T04:24:31.873Z,6.450
2023-01-09T04:25:29.208Z,6.500
2023-01-09T04:26:23.681Z,6.500
2023-01-09T04:27:33.273Z,6.600
2023-01-09T04:28:29.550Z,6.600
2023-01-09T04:29:24.537Z,6.600
2023-01-09T04:30:20.453Z,6.600
2023-01-09T04:31:30.522Z,6.650
2023-01-09T04:32:27.323Z,6.700
2023-01-09T04:33:23.977Z,6.700
2023-01-09T04:34:21.299Z,6.700
2023-01-09T04:35:32.165Z,6.800
2023-01-09T04:37:20.370Z,6.800
2023-01-09T04:38:31.928Z,6.900
2023-01-09T04:39:26.259Z,6.900
2023-01-09T04:40:22.367Z,7.000
2023-01-09T04:41:32.113Z,7.000
2023-01-09T04:43:30.632Z,7.000
2023-01-09T04:45:32.053Z,7.100
2023-01-09T04:46:26.214Z,7.200
2023-01-09T04:47:26.405Z,7.200
2023-01-09T04:48:33.010Z,7.300
2023-01-09T04:49:29.350Z,7.300
2023-01-09T04:50:24.250Z,7.300
2023-01-09T04:51:25.734Z,7.300
2023-01-09T04:53:26.025Z,7.400
2023-01-09T04:54:23.921Z,7.400
2023-01-09T04:55:34.020Z,7.400
2023-01-09T04:56:29.874Z,7.400
2023-01-09T04:57:24.254Z,7.500
2023-01-09T04:58:22.885Z,7.500
2023-01-09T04:59:21.038Z,7.500
2023-01-09T05:00:27.990Z,7.500
2023-01-09T05:01:22.359Z,7.500
2023-01-09T05:02:35.217Z,7.400
2023-01-09T05:03:28.521Z,7.400
2023-01-09T05:04:25.483Z,7.500
2023-01-09T05:06:27.143Z,7.500
2023-01-09T05:07:26.699Z,7.500
2023-01-09T05:08:24.735Z,7.500
2023-01-09T05:09:21.943Z,7.500
2023-01-09T05:10:29.861Z,7.400
2023-01-09T05:11:25.686Z,7.400
2023-01-09T05:28:27.437Z,7.400
2023-01-09T05:31:28.378Z,7.300
2023-01-09T05:32:24.692Z,7.250
2023-01-09T05:33:21.983Z,7.100
2023-01-09T05:35:26.564Z,7.100
2023-01-09T05:36:22.969Z,7.100
2023-01-09T05:37:20.673Z,7.100
2023-01-09T05:39:26.518Z,7.100
2023-01-09T05:40:20.803Z,7.000
2023-01-09T05:41:30.759Z,6.900
2023-01-09T05:42:28.378Z,6.900
2023-01-09T05:43:24.327Z,6.800
2023-01-09T05:44:24.774Z,6.800
2023-01-09T05:46:24.338Z,6.800
2023-01-09T05:47:21.908Z,6.800
2023-01-09T05:48:34.855Z,6.800
2023-01-09T05:49:26.447Z,6.700
2023-01-09T05:50:23.820Z,6.700
2023-01-09T05:51:29.462Z,6.700
2023-01-09T05:54:20.350Z,6.600
2023-01-09T05:55:32.314Z,6.500
2023-01-09T05:56:20.983Z,6.500
2023-01-09T05:57:24.429Z,6.400
2023-01-09T05:58:35.012Z,6.400
2023-01-09T06:01:22.253Z,6.300
2023-01-09T06:02:32.009Z,6.250
2023-01-09T06:04:22.283Z,6.100
2023-01-09T06:05:37.739Z,6.100
2023-01-09T06:09:30.480Z,5.900
2023-01-09T06:10:27.083Z,5.900
2023-01-09T06:11:22.180Z,5.900
2023-01-09T06:12:32.466Z,5.800
2023-01-09T06:13:36.722Z,5.800
2023-01-09T06:15:20.703Z,5.700
2023-01-09T06:17:27.558Z,5.600
2023-01-09T06:18:22.683Z,5.600
2023-01-09T06:19:34.286Z,5.600
2023-01-09T06:20:28.591Z,5.600
2023-01-09T06:21:24.632Z,5.600
2023-01-09T06:22:25.871Z,5.500
2023-01-09T06:24:27.774Z,5.500
2023-01-09T06:25:22.679Z,5.400
2023-01-09T06:26:32.497Z,5.300
2023-01-09T06:27:30.508Z,5.300
2023-01-09T06:28:24.616Z,5.300
2023-01-09T06:29:20.754Z,5.300
2023-01-09T06:30:24.270Z,5.200
2023-01-09T06:32:22.616Z,5.200
2023-01-09T06:33:36.610Z,5.200
2023-01-09T06:34:29.116Z,5.100
2023-01-09T06:35:26.372Z,5.100
2023-01-09T06:36:22.408Z,5.100
2023-01-09T06:37:26.416Z,5.000
2023-01-09T06:39:22.454Z,5.000
2023-01-09T06:40:33.347Z,5.000
2023-01-09T06:41:28.327Z,5.000
2023-01-09T06:42:27.087Z,5.000
2023-01-09T06:43:20.509Z,5.000
2023-01-09T06:44:31.328Z,4.900
2023-01-09T06:47:34.173Z,5.000
2023-01-09T06:48:28.252Z,5.000
2023-01-09T06:49:25.859Z,5.000
2023-01-09T06:50:20.451Z,5.000
2023-01-09T06:51:31.855Z,5.000
2023-01-09T06:52:30.508Z,5.000
2023-01-09T06:54:33.194Z,5.000
2023-01-09T06:55:30.077Z,5.000
2023-01-09T06:56:24.298Z,5.050
2023-01-09T06:57:22.530Z,5.100
2023-01-09T06:58:30.675Z,5.100
2023-01-09T06:59:29.077Z,5.100
2023-01-09T07:00:23.334Z,5.100
2023-01-09T07:01:21.710Z,5.100
2023-01-09T07:03:24.265Z,5.000
2023-01-09T07:04:23.002Z,5.000
2023-01-09T07:05:32.222Z,5.000
2023-01-09T07:06:26.784Z,5.000
2023-01-09T07:07:24.456Z,5.000
2023-01-09T07:08:24.661Z,5.000
2023-01-09T07:09:29.775Z,5.000
2023-01-09T07:10:24.805Z,5.000
2023-01-09T07:11:22.294Z,5.000
2023-01-09T07:12:19.625Z,5.000
2023-01-09T07:13:26.572Z,5.000
2023-01-09T07:14:23.900Z,5.000
2023-01-09T07:15:23.127Z,5.100
2023-01-09T07:16:20.217Z,5.100
2023-01-09T07:17:24.653Z,5.100
2023-01-09T07:18:22.122Z,5.100
2023-01-09T07:19:22.638Z,5.100
2023-01-09T07:20:26.730Z,5.100
2023-01-09T07:21:25.069Z,5.100
2023-01-09T07:22:27.394Z,5.100
2023-01-09T07:23:21.537Z,5.100
2023-01-09T07:24:24.777Z,5.100
2023-01-09T07:25:37.341Z,5.100
2023-01-09T07:26:25.740Z,5.150
2023-01-09T07:27:28.320Z,5.200
2023-01-09T07:28:23.149Z,5.200
2023-01-09T07:29:38.423Z,5.200
2023-01-09T07:32:20.666Z,5.300
2023-01-09T07:33:30.814Z,5.300
2023-01-09T07:34:26.579Z,5.300
2023-01-09T07:35:24.636Z,5.300
2023-01-09T07:36:41.245Z,5.300
2023-01-09T07:38:20.940Z,5.400
2023-01-09T07:39:20.616Z,5.400
2023-01-09T07:40:33.812Z,5.400
2023-01-09T07:41:26.427Z,5.400
2023-01-09T07:42:23.689Z,5.400
2023-01-09T07:43:33.705Z,5.500
2023-01-09T07:44:28.400Z,5.500
2023-01-09T07:45:22.029Z,5.500
2023-01-09T07:46:24.568Z,5.500
2023-01-09T07:48:21.625Z,5.500
2023-01-09T07:49:26.723Z,5.500
2023-01-09T07:50:34.652Z,5.500
2023-01-09T07:51:29.894Z,5.600
2023-01-09T07:52:24.418Z,5.600
2023-01-09T07:53:22.150Z,5.600
2023-01-09T07:54:20.226Z,5.600
2023-01-09T07:55:26.366Z,5.600
2023-01-09T07:56:22.349Z,5.600
2023-01-09T07:57:34.481Z,5.600
2023-01-09T07:58:29.473Z,5.600
2023-01-09T07:59:21.370Z,5.600
2023-01-09T08:00:20.447Z,5.600
2023-01-09T08:01:25.076Z,5.600
2023-01-09T08:02:23.215Z,5.600
2023-01-09T08:03:22.355Z,5.700
2023-01-09T08:04:33.282Z,5.700
2023-01-09T08:05:29.762Z,5.700
2023-01-09T08:06:24.384Z,5.700
2023-01-09T08:07:20.423Z,5.700
2023-01-09T08:08:24.479Z,5.700
2023-01-09T08:09:22.449Z,5.700
2023-01-09T08:10:22.905Z,5.700
2023-01-09T08:11:34.891Z,5.700
2023-01-09T08:12:28.887Z,5.800
2023-01-09T08:13:21.661Z,5.800
2023-01-09T08:14:20.357Z,5.800
2023-01-09T08:15:27.032Z,5.800
2023-01-09T08:16:22.575Z,5.800
2023-01-09T08:17:24.355Z,5.800
2023-01-09T08:18:33.168Z,5.800
2023-01-09T08:19:24.917Z,5.800
2023-01-09T08:20:24.808Z,5.800
2023-01-09T08:21:21.319Z,5.800
2023-01-09T08:22:31.079Z,5.800
2023-01-09T08:23:28.202Z,5.800
2023-01-09T08:24:23.767Z,5.900
2023-01-09T08:26:28.765Z,5.900
2023-01-09T08:27:25.926Z,5.900
2023-01-09T08:28:36.622Z,5.900
2023-01-09T08:29:30.470Z,5.900
2023-01-09T08:30:22.427Z,5.900
2023-01-09T08:31:22.693Z,5.900
2023-01-09T08:32:21.037Z,5.900
2023-01-09T08:33:31.001Z,5.900
2023-01-09T08:34:24.601Z,5.900
2023-01-09T08:35:21.864Z,5.800
2023-01-09T08:36:28.472Z,5.800
2023-01-09T08:37:26.698Z,5.800
2023-01-09T08:38:24.709Z,5.800
2023-01-09T08:39:27.219Z,5.800
2023-01-09T08:40:28.429Z,5.800
2023-01-09T08:41:25.369Z,5.800
2023-01-09T08:42:22.394Z,5.800
2023-01-09T08:43:31.669Z,5.800
2023-01-09T08:44:27.126Z,5.800
2023-01-09T08:45:24.575Z,5.800
2023-01-09T08:46:21.909Z,5.800
2023-01-09T08:47:25.366Z,5.800
2023-01-09T08:48:24.457Z,5.800
2023-01-09T08:49:22.115Z,5.900
2023-01-09T08:50:32.610Z,5.900
2023-01-09T08:51:27.852Z,6.000
2023-01-09T08:52:22.487Z,6.000
2023-01-09T08:53:27.898Z,6.000
2023-01-09T08:54:29.885Z,6.000
2023-01-09T08:55:21.734Z,6.100
2023-01-09T08:56:21.110Z,6.100
2023-01-09T08:57:30.829Z,6.100
2023-01-09T08:58:22.498Z,6.200
2023-01-09T09:00:26.056Z,6.300
2023-01-09T09:01:23.539Z,6.300
2023-01-09T09:02:25.258Z,6.300
2023-01-09T09:03:22.120Z,6.400
2023-01-09T09:04:20.844Z,6.400
2023-01-09T09:05:28.531Z,6.600
2023-01-09T09:06:23.021Z,6.700
2023-01-09T09:07:28.983Z,6.700
2023-01-09T09:08:28.702Z,6.700
2023-01-09T09:09:20.168Z,6.800
2023-01-09T09:10:20.941Z,6.800
2023-01-09T09:12:29.363Z,7.000
2023-01-09T09:13:22.473Z,7.050
2023-01-09T09:14:32.617Z,7.100
2023-01-09T09:15:22.885Z,7.100
2023-01-09T09:16:24.995Z,7.200
2023-01-09T09:17:20.553Z,7.300
2023-01-09T09:18:26.905Z,7.300
2023-01-09T09:19:26.706Z,7.400
2023-01-09T09:20:22.858Z,7.400
2023-01-09T09:21:29.893Z,7.500
2023-01-09T09:22:22.032Z,7.500
2023-01-09T09:23:28.165Z,7.500
2023-01-09T09:24:32.247Z,7.600
2023-01-09T09:25:23.509Z,7.700
2023-01-09T09:26:21.943Z,7.700
2023-01-09T09:27:22.820Z,7.700
2023-01-09T09:28:32.549Z,7.700
2023-01-09T09:29:25.123Z,7.700
2023-01-09T09:30:26.420Z,7.700
2023-01-09T09:31:21.197Z,7.700
2023-01-09T09:32:26.923Z,7.700
2023-01-09T09:35:34.144Z,7.800
2023-01-09T09:36:28.582Z,7.800
2023-01-09T09:37:24.748Z,7.900
2023-01-09T09:38:20.786Z,7.900
2023-01-09T09:39:22.108Z,7.900
2023-01-09T09:40:26.534Z,7.900
2023-01-09T09:42:32.415Z,8.000
2023-01-09T09:43:23.593Z,8.000
2023-01-09T09:44:25.431Z,8.100
2023-01-09T09:45:20.907Z,8.100
2023-01-09T09:46:25.777Z,8.200
2023-01-09T09:47:28.696Z,8.200
2023-01-09T09:49:28.277Z,8.200
2023-01-09T09:50:28.425Z,8.200
2023-01-09T09:51:20.937Z,8.200
2023-01-09T09:52:21.996Z,8.300
2023-01-09T09:53:32.006Z,8.300
2023-01-09T09:55:22.891Z,8.300
2023-01-09T09:56:33.599Z,8.300
2023-01-09T09:57:29.809Z,8.300
2023-01-09T09:58:25.186Z,8.350
2023-01-09T09:59:22.506Z,8.400
2023-01-09T10:00:25.643Z,8.400
2023-01-09T10:01:33.616Z,8.400
2023-01-09T10:02:22.617Z,8.400
2023-01-09T10:03:33.214Z,8.400
2023-01-09T10:04:44.655Z,8.400
2023-01-09T10:05:27.093Z,8.400
2023-01-09T10:06:20.581Z,8.400
2023-01-09T10:07:30.879Z,8.500
2023-01-09T10:08:26.876Z,8.500
2023-01-09T10:09:24.151Z,8.500
2023-01-09T10:10:27.718Z,8.500
2023-01-09T10:11:20.967Z,8.500
2023-01-09T10:12:24.387Z,8.500
2023-01-09T10:13:20.553Z,8.500
2023-01-09T10:14:30.828Z,8.550
2023-01-09T10:15:36.552Z,8.600
2023-01-09T10:16:28.784Z,8.600
2023-01-09T10:17:20.559Z,8.600
2023-01-09T10:18:24.861Z,8.600
2023-01-09T10:19:34.646Z,8.600
2023-01-09T10:20:20.493Z,8.600
2023-01-09T10:21:32.532Z,8.600
2023-01-09T10:22:40.959Z,8.700
2023-01-09T10:23:24.465Z,8.700
2023-01-09T10:24:24.717Z,8.700
2023-01-09T10:25:28.819Z,8.700
2023-01-09T10:26:23.333Z,8.700
2023-01-09T10:27:36.229Z,8.800
2023-01-09T10:28:22.786Z,8.800
2023-01-09T10:29:28.314Z,8.800
2023-01-09T10:30:22.795Z,8.800
2023-01-09T10:31:30.381Z,8.800
2023-01-09T10:32:22.523Z,8.800
2023-01-09T10:33:27.610Z,8.800
2023-01-09T10:35:47.979Z,8.800
2023-01-09T10:36:26.697Z,8.850
2023-01-09T10:37:23.895Z,8.900
2023-01-09T10:38:21.299Z,8.900
2023-01-09T10:39:21.783Z,8.800
2023-01-09T10:40:24.793Z,8.800
2023-01-09T10:41:23.508Z,8.800
2023-01-09T10:42:30.769Z,8.800
2023-01-09T10:43:26.599Z,8.800
2023-01-09T10:44:38.565Z,8.800
2023-01-09T10:45:24.549Z,8.800
2023-01-09T10:46:31.594Z,8.800
2023-01-09T10:47:25.261Z,8.800
2023-01-09T10:48:27.464Z,8.800
2023-01-09T10:49:22.345Z,8.800
2023-01-09T10:50:42.954Z,8.800
2023-01-09T10:51:25.141Z,8.800
2023-01-09T10:52:27.261Z,8.900
2023-01-09T10:53:28.460Z,8.900
2023-01-09T10:54:28.135Z,8.900
2023-01-09T10:55:20.659Z,8.900
2023-01-09T10:56:27.516Z,8.900
2023-01-09T10:57:26.476Z,8.900
2023-01-09T10:58:22.745Z,9.000
2023-01-09T10:59:30.687Z,8.950
2023-01-09T11:00:29.942Z,9.000
2023-01-09T11:01:24.650Z,9.000
2023-01-09T11:02:21.885Z,9.000
2023-01-09T11:03:25.368Z,9.000
2023-01-09T11:04:22.789Z,9.000
2023-01-09T11:05:40.612Z,9.000
2023-01-09T11:06:32.885Z,9.000
2023-01-09T11:07:22.350Z,9.000
2023-01-09T11:08:36.525Z,9.100
2023-01-09T11:09:20.565Z,9.100
2023-01-09T11:10:22.687Z,9.100
2023-01-09T11:11:26.893Z,9.100
2023-01-09T11:12:19.461Z,9.100
2023-01-09T11:13:25.297Z,9.100
2023-01-09T11:14:23.149Z,9.200
2023-01-09T11:15:24.455Z,9.200
2023-01-09T11:16:20.669Z,9.200
2023-01-09T11:17:26.297Z,9.200
2023-01-09T11:18:30.774Z,9.200
2023-01-09T11:19:23.991Z,9.300
2023-01-09T11:20:34.671Z,9.300
2023-01-09T11:21:26.389Z,9.200
2023-01-09T11:22:41.477Z,9.200
2023-01-09T11:23:22.712Z,9.200
2023-01-09T11:24:20.840Z,9.200
2023-01-09T11:25:21.581Z,9.300
2023-01-09T11:26:23.260Z,9.300
2023-01-09T11:27:22.758Z,9.300
2023-01-09T11:28:29.449Z,9.300
2023-01-09T11:29:39.657Z,9.300
2023-01-09T11:30:22.777Z,9.300
2023-01-09T11:31:34.699Z,9.300
2023-01-09T11:32:25.733Z,9.400
2023-01-09T11:33:22.912Z,9.400
2023-01-09T11:34:25.464Z,9.400
2023-01-09T11:35:34.325Z,9.400
2023-01-09T11:36:30.840Z,9.400
2023-01-09T11:37:21.573Z,9.450
2023-01-09T11:38:31.333Z,9.500
2023-01-09T11:39:31.313Z,9.500
2023-01-09T11:40:22.920Z,9.500
2023-01-09T11:41:23.267Z,9.500
2023-01-09T11:42:22.881Z,9.500
2023-01-09T11:43:22.194Z,9.500
2023-01-09T11:44:49.094Z,9.500
2023-01-09T11:45:33.367Z,9.500
2023-01-09T11:46:29.879Z,9.500
2023-01-09T11:47:28.972Z,9.500
2023-01-09T11:48:19.893Z,9.500
2023-01-09T11:49:27.096Z,9.500
2023-01-09T11:50:20.865Z,9.500
2023-01-09T11:51:21.495Z,9.500
2023-01-09T11:52:19.571Z,9.500
2023-01-09T11:53:35.536Z,9.600
2023-01-09T11:54:21.778Z,9.600
2023-01-09T11:55:29.292Z,9.600
2023-01-09T11:56:31.188Z,9.600
2023-01-09T11:57:24.238Z,9.600
2023-01-09T11:58:21.314Z,9.600
2023-01-09T11:59:42.380Z,9.600
2023-01-09T12:00:37.577Z,9.600
2023-01-09T12:01:22.918Z,9.600
2023-01-09T12:02:29.505Z,9.600
2023-01-09T12:03:22.423Z,9.600
2023-01-09T12:04:24.537Z,9.600
2023-01-09T12:05:22.340Z,9.700
2023-01-09T12:07:26.602Z,9.600
2023-01-09T12:08:22.648Z,9.600
2023-01-09T12:09:21.832Z,9.600
2023-01-09T12:10:26.900Z,9.600
2023-01-09T12:11:24.860Z,9.600
2023-01-09T12:12:21.243Z,9.600
2023-01-09T12:13:30.989Z,9.600
2023-01-09T12:14:27.062Z,9.600
2023-01-09T12:15:24.102Z,9.600
2023-01-09T12:16:38.005Z,9.600
2023-01-09T12:17:28.450Z,9.600
2023-01-09T12:20:24.157Z,9.600
2023-01-09T12:21:33.095Z,9.600
2023-01-09T12:22:22.540Z,9.600
2023-01-09T12:23:39.719Z,9.550
2023-01-09T12:24:33.677Z,9.400
2023-01-09T12:25:27.718Z,9.300
2023-01-09T12:26:21.655Z,9.200
2023-01-09T12:27:27.175Z,9.100
2023-01-09T12:28:20.096Z,9.000
2023-01-09T12:29:23.643Z,8.800
2023-01-09T12:30:24.328Z,8.700
2023-01-09T12:31:29.729Z,8.550
2023-01-09T12:32:24.884Z,8.500
2023-01-09T12:33:24.287Z,8.500
2023-01-09T12:34:31.334Z,8.500
2023-01-09T12:36:22.930Z,8.400
2023-01-09T12:37:20.614Z,8.300
2023-01-09T12:38:30.088Z,8.300
2023-01-09T12:39:24.952Z,8.300
2023-01-09T12:40:21.028Z,8.300
2023-01-09T12:41:21.932Z,8.300
2023-01-09T12:42:30.090Z,8.200
2023-01-09T12:44:35.681Z,8.200
2023-01-09T12:45:28.917Z,8.300
2023-01-09T12:46:26.616Z,8.300
2023-01-09T12:47:21.048Z,8.300
2023-01-09T12:48:24.597Z,8.300
2023-01-09T12:49:26.747Z,8.300
2023-01-09T12:50:23.602Z,8.300
2023-01-09T12:51:32.739Z,8.300
2023-01-09T12:52:31.032Z,8.300
2023-01-09T12:53:24.795Z,8.300
2023-01-09T12:54:22.949Z,8.300
2023-01-09T12:55:30.698Z,8.300
2023-01-09T12:56:20.864Z,8.300
2023-01-09T12:57:24.203Z,8.300
2023-01-09T12:58:23.589Z,8.300
2023-01-09T12:59:24.062Z,8.300
2023-01-09T13:00:26.796Z,8.300
2023-01-09T13:01:38.863Z,8.300
2023-01-09T13:02:31.874Z,8.300
2023-01-09T13:03:27.803Z,8.300
2023-01-09T13:04:22.774Z,8.300
2023-01-09T13:05:19.367Z,8.300
2023-01-09T13:06:22.764Z,8.300
2023-01-09T13:07:24.850Z,8.300
2023-01-09T13:08:23.386Z,8.300
2023-01-09T13:09:33.524Z,8.300
2023-01-09T13:10:28.639Z,8.300
2023-01-09T13:11:23.507Z,8.300
2023-01-09T13:13:29.187Z,8.300
2023-01-09T13:14:24.559Z,8.300
2023-01-09T13:15:21.443Z,8.300
2023-01-09T13:16:31.133Z,8.300
2023-01-09T13:17:21.979Z,8.300
2023-01-09T13:18:25.727Z,8.300
2023-01-09T13:19:32.790Z,8.300
2023-01-09T13:20:31.017Z,8.300
2023-01-09T13:22:21.761Z,8.300
2023-01-09T13:23:30.899Z,8.300
2023-01-09T13:24:27.440Z,8.300
2023-01-09T13:25:23.906Z,8.300
2023-01-09T13:26:22.884Z,8.300
2023-01-09T13:27:28.899Z,8.300
2023-01-09T13:28:20.457Z,8.300
2023-01-09T13:29:20.731Z,8.300
2023-01-09T13:30:30.802Z,8.300
2023-01-09T13:31:30.263Z,8.300
2023-01-09T13:32:23.007Z,8.300
2023-01-09T13:33:27.033Z,8.300
2023-01-09T13:34:22.722Z,8.300
2023-01-09T13:35:25.080Z,8.300
2023-01-09T13:36:23.731Z,8.300
2023-01-09T13:39:24.278Z,8.300
2023-01-09T13:40:32.688Z,8.300
2023-01-09T13:41:25.137Z,8.300
2023-01-09T13:42:26.535Z,8.300
2023-01-09T13:43:21.117Z,8.300
2023-01-09T13:44:22.039Z,8.300
2023-01-09T13:45:31.321Z,8.300
2023-01-09T13:46:23.032Z,8.300
2023-01-09T13:47:35.952Z,8.300
2023-01-09T13:48:29.525Z,8.300
2023-01-09T13:49:20.708Z,8.200
2023-01-09T13:50:20.929Z,8.200
2023-01-09T13:51:25.569Z,8.200
2023-01-09T13:52:26.878Z,8.200
2023-01-09T13:53:23.941Z,8.200
2023-01-09T13:54:33.257Z,8.200
2023-01-09T13:55:33.595Z,8.300
2023-01-09T13:56:25.384Z,8.200
2023-01-09T13:57:22.492Z,8.200
2023-01-09T13:58:30.766Z,8.200
2023-01-09T13:59:24.551Z,8.200
2023-01-09T14:00:22.852Z,8.200
2023-01-09T14:01:33.122Z,8.200
2023-01-09T14:02:30.912Z,8.200
2023-01-09T14:03:26.230Z,8.300
2023-01-09T14:04:21.890Z,8.300
2023-01-09T14:05:33.797Z,8.300
2023-01-09T14:08:37.124Z,8.300
2023-01-09T14:09:28.632Z,8.400
2023-01-09T14:10:25.867Z,8.400
2023-01-09T14:11:21.451Z,8.400
2023-01-09T14:12:31.729Z,8.400
2023-01-09T14:13:27.755Z,8.400
2023-01-09T14:14:24.388Z,8.400
2023-01-09T14:16:45.611Z,8.500
2023-01-09T14:17:24.685Z,8.500
2023-01-09T14:18:21.519Z,8.500
2023-01-09T14:19:23.004Z,8.500
2023-01-09T14:20:27.373Z,8.500
2023-01-09T14:21:24.510Z,8.500
2023-01-09T14:22:22.992Z,8.500
2023-01-09T14:23:46.045Z,8.500
2023-01-09T14:24:26.148Z,8.600
2023-01-09T14:25:39.181Z,8.600
2023-01-09T14:26:26.255Z,8.600
2023-01-09T14:27:20.341Z,8.500
2023-01-09T14:28:33.335Z,8.500
2023-01-09T14:29:28.624Z,8.500
2023-01-09T14:30:29.529Z,8.500
2023-01-09T14:31:27.163Z,8.500